Time;durP1;ratioP1;P1;durP2;ratioP2;P2;SDS_P1;SDS_P2;PMS_P1;PMS_P2;Temp;Humidity;BMP_temperature;BMP_pressure;BME280_temperature;BME280_humidity;BME280_pressure;Samples;Min_cycle;Max_cycle;Signal;HPM_P1;HPM_P2
2021/07/21 00:02:24;;;;;;;12.93;10.50;;;14.80;99.90;;;;;;5052843;28;20182;-65
2021/07/21 00:04:49;;;;;;;11.13;9.43;;;14.80;99.90;;;;;;5053758;28;20600;-65
2021/07/21 00:07:16;;;;;;;11.37;10.17;;;14.70;99.90;;;;;;5053731;28;20199;-65
2021/07/21 00:09:42;;;;;;;14.13;11.30;;;14.70;99.90;;;;;;5053845;28;20174;-65
2021/07/21 00:14:52;;;;;;;10.57;9.53;;;14.60;99.90;;;;;;5033777;28;20186;-65
2021/07/21 00:17:32;;;;;;;13.30;9.90;;;14.70;99.90;;;;;;5035025;28;20187;-65
2021/07/21 00:20:07;;;;;;;13.50;10.50;;;14.70;99.90;;;;;;5053706;28;20202;-65
2021/07/21 00:22:43;;;;;;;11.17;10.07;;;14.70;99.90;;;;;;5053454;28;20972;-65
2021/07/21 00:25:13;;;;;;;13.40;10.57;;;14.60;99.90;;;;;;5053392;28;20170;-65
2021/07/21 00:27:40;;;;;;;11.47;10.37;;;14.60;99.90;;;;;;5053286;28;20671;-65
2021/07/21 00:30:08;;;;;;;12.40;11.00;;;14.50;99.90;;;;;;5053587;28;20198;-65
2021/07/21 00:32:34;;;;;;;11.23;10.03;;;14.60;99.90;;;;;;5053107;28;20171;-65
2021/07/21 00:35:00;;;;;;;14.07;9.60;;;14.60;99.90;;;;;;5053257;28;20245;-65
2021/07/21 00:37:26;;;;;;;13.03;10.03;;;14.50;99.90;;;;;;5053083;28;20182;-65
2021/07/21 00:39:51;;;;;;;15.20;10.97;;;14.50;99.90;;;;;;5053439;28;20175;-65
2021/07/21 00:42:17;;;;;;;13.53;9.43;;;14.40;99.90;;;;;;5052695;28;20167;-65
2021/07/21 00:44:44;;;;;;;13.10;11.63;;;14.30;99.90;;;;;;5053055;28;20171;-65
2021/07/21 00:47:10;;;;;;;13.03;10.40;;;14.30;99.90;;;;;;5052810;28;20195;-65
2021/07/21 00:49:35;;;;;;;11.47;10.47;;;14.30;99.90;;;;;;5053053;28;20174;-65
2021/07/21 00:52:04;;;;;;;12.33;11.13;;;14.30;99.90;;;;;;5052897;28;20182;-65
2021/07/21 00:54:32;;;;;;;10.73;9.80;;;14.20;99.90;;;;;;5052632;28;20167;-65
2021/07/21 00:56:59;;;;;;;13.47;10.70;;;14.20;99.90;;;;;;5052799;28;20234;-65
2021/07/21 00:59:26;;;;;;;14.83;10.90;;;14.20;99.90;;;;;;5052920;28;20671;-65
2021/07/21 01:01:51;;;;;;;14.13;11.17;;;14.20;99.90;;;;;;5052179;28;20245;-65
2021/07/21 01:04:17;;;;;;;12.47;10.73;;;14.30;99.90;;;;;;5033777;28;20265;-65
2021/07/21 01:06:43;;;;;;;11.87;10.07;;;14.20;99.90;;;;;;5051708;28;20202;-65
2021/07/21 01:09:09;;;;;;;12.07;10.87;;;14.20;99.90;;;;;;5052807;28;20167;-65
2021/07/21 01:11:43;;;;;;;12.60;11.33;;;14.10;99.90;;;;;;5052288;28;20190;-65
2021/07/21 01:14:34;;;;;;;12.93;10.53;;;14.00;99.90;;;;;;5052170;28;20189;-65
2021/07/21 01:17:04;;;;;;;13.93;11.40;;;13.80;99.90;;;;;;5052559;28;20187;-65
2021/07/21 01:20:04;;;;;;;13.00;11.33;;;13.80;99.90;;;;;;5052163;28;20758;-65
2021/07/21 01:22:35;;;;;;;12.37;10.70;;;13.80;99.90;;;;;;5052446;28;20274;-65
2021/07/21 01:25:17;;;;;;;12.27;10.97;;;13.70;99.90;;;;;;5052217;28;20167;-65
2021/07/21 01:27:53;;;;;;;14.97;11.53;;;13.70;99.90;;;;;;5052394;28;20469;-65
2021/07/21 01:30:25;;;;;;;12.23;10.87;;;13.60;99.90;;;;;;5051956;28;20185;-65
2021/07/21 01:32:55;;;;;;;12.53;10.43;;;13.70;99.90;;;;;;5034808;28;20240;-65
2021/07/21 01:35:23;;;;;;;12.27;11.07;;;13.70;99.90;;;;;;5051695;28;20699;-65
2021/07/21 01:37:56;;;;;;;12.83;11.50;;;13.70;99.90;;;;;;5052343;28;20195;-65
2021/07/21 01:40:26;;;;;;;14.83;11.80;;;13.70;99.90;;;;;;5050910;28;20206;-65
2021/07/21 01:42:55;;;;;;;14.27;11.27;;;13.70;99.90;;;;;;5052152;28;20171;-65
2021/07/21 01:45:22;;;;;;;15.33;11.50;;;13.70;99.90;;;;;;5051264;28;20199;-65
2021/07/21 01:47:49;;;;;;;13.90;11.00;;;13.70;99.90;;;;;;5051991;28;20244;-65
2021/07/21 01:50:15;;;;;;;12.43;11.00;;;13.70;99.90;;;;;;5051668;28;20232;-65
2021/07/21 01:52:48;;;;;;;14.10;11.03;;;13.70;99.90;;;;;;5051992;28;20694;-65
2021/07/21 01:55:14;;;;;;;14.87;11.93;;;13.60;99.90;;;;;;5051338;28;20185;-65
2021/07/21 01:57:41;;;;;;;14.60;12.20;;;13.60;99.90;;;;;;5051810;28;20197;-65
2021/07/21 02:00:11;;;;;;;12.63;10.57;;;13.70;99.90;;;;;;5051567;28;20224;-65
2021/07/21 02:02:37;;;;;;;15.90;10.80;;;13.60;99.90;;;;;;5051662;28;20179;-65
2021/07/21 02:05:05;;;;;;;18.13;11.60;;;13.50;99.90;;;;;;5051127;28;20248;-65
2021/07/21 02:07:32;;;;;;;13.93;11.63;;;13.50;99.90;;;;;;5051569;28;20198;-65
2021/07/21 02:09:58;;;;;;;15.07;12.20;;;13.40;99.90;;;;;;5051481;28;20205;-65
2021/07/21 02:12:23;;;;;;;16.13;12.53;;;13.40;99.90;;;;;;5051344;28;20202;-71
2021/07/21 02:14:49;;;;;;;14.67;11.90;;;13.40;99.90;;;;;;5052499;28;20194;-69
2021/07/21 02:17:16;;;;;;;18.07;11.93;;;13.40;99.90;;;;;;5053051;28;20187;-72
2021/07/21 02:19:44;;;;;;;18.90;13.50;;;13.40;99.90;;;;;;5052322;28;20249;-69
2021/07/21 02:22:12;;;;;;;13.90;11.63;;;13.40;99.90;;;;;;5053051;28;20181;-69
2021/07/21 02:24:38;;;;;;;15.80;12.70;;;13.40;99.90;;;;;;5052305;28;20174;-71
2021/07/21 02:27:04;;;;;;;15.03;13.03;;;13.40;99.90;;;;;;5052640;28;20191;-68
2021/07/21 02:29:30;;;;;;;16.73;12.53;;;13.40;99.90;;;;;;5052391;28;20586;-68
2021/07/21 02:32:17;;;;;;;14.37;11.77;;;13.40;99.90;;;;;;5052839;28;20584;-70
2021/07/21 02:34:43;;;;;;;15.40;11.77;;;13.40;99.90;;;;;;5052435;28;20171;-69
2021/07/21 02:37:12;;;;;;;14.07;12.57;;;13.40;99.90;;;;;;5052688;28;20706;-69
2021/07/21 02:39:38;;;;;;;15.07;11.63;;;13.40;99.90;;;;;;5052059;28;20591;-69
2021/07/21 02:42:04;;;;;;;12.33;11.10;;;13.30;99.90;;;;;;5052564;28;20182;-69
2021/07/21 02:44:29;;;;;;;13.50;12.10;;;13.30;99.90;;;;;;5052338;28;20574;-69
2021/07/21 02:46:55;;;;;;;14.67;12.13;;;13.30;99.90;;;;;;5052394;28;20191;-69
2021/07/21 02:49:21;;;;;;;14.63;11.67;;;13.30;99.90;;;;;;5053278;28;20187;-66
2021/07/21 02:52:01;;;;;;;16.43;12.40;;;13.30;99.90;;;;;;5052270;28;20187;-67
2021/07/21 02:54:35;;;;;;;14.40;12.13;;;13.20;99.90;;;;;;5052364;28;20258;-70
2021/07/21 02:57:15;;;;;;;14.93;12.27;;;13.30;99.90;;;;;;5034274;28;20209;-71
2021/07/21 02:59:45;;;;;;;18.10;12.37;;;13.20;99.90;;;;;;5052645;28;20209;-70
2021/07/21 03:02:14;;;;;;;15.97;13.00;;;13.20;99.90;;;;;;5052588;28;20258;-69
2021/07/21 03:04:41;;;;;;;19.13;12.87;;;13.20;99.90;;;;;;5052135;28;20191;-68
2021/07/21 03:07:08;;;;;;;16.83;12.80;;;13.20;99.90;;;;;;5051984;28;20198;-68
2021/07/21 03:09:35;;;;;;;18.70;13.43;;;13.10;99.90;;;;;;5052151;28;20316;-67
2021/07/21 03:12:04;;;;;;;15.17;12.90;;;13.00;99.90;;;;;;5052267;28;20713;-67
2021/07/21 03:14:30;;;;;;;17.87;12.73;;;13.00;99.90;;;;;;5051753;28;20194;-70
2021/07/21 03:17:00;;;;;;;20.33;12.67;;;13.00;99.90;;;;;;5051864;28;20207;-69
2021/07/21 03:19:27;;;;;;;18.10;12.77;;;13.10;99.90;;;;;;5052165;28;20563;-68
2021/07/21 03:21:56;;;;;;;14.87;12.53;;;13.00;99.90;;;;;;5051897;28;20182;-70
2021/07/21 03:24:24;;;;;;;16.77;13.53;;;13.00;99.90;;;;;;5053872;28;20637;-68
2021/07/21 03:26:51;;;;;;;15.97;12.53;;;13.00;99.90;;;;;;5056039;28;20240;-69
2021/07/21 03:29:19;;;;;;;17.70;13.07;;;12.90;99.90;;;;;;5055746;28;20614;-69
2021/07/21 03:31:46;;;;;;;15.13;11.67;;;12.90;99.90;;;;;;5038028;28;20542;-69
2021/07/21 03:34:13;;;;;;;13.70;11.97;;;13.00;99.90;;;;;;5055585;28;20232;-70
2021/07/21 03:36:43;;;;;;;13.50;12.13;;;13.00;99.90;;;;;;5037594;28;20214;-69
2021/07/21 03:39:11;;;;;;;15.33;12.13;;;12.90;99.90;;;;;;5055550;28;20226;-67
2021/07/21 03:41:38;;;;;;;13.67;12.23;;;12.90;99.90;;;;;;5055636;28;20167;-70
2021/07/21 03:44:07;;;;;;;14.23;12.53;;;12.90;99.90;;;;;;5055333;28;20197;-71
2021/07/21 03:46:36;;;;;;;19.03;11.83;;;12.90;99.90;;;;;;5055316;28;20270;-71
2021/07/21 03:49:02;;;;;;;14.93;13.33;;;12.80;99.90;;;;;;5055378;28;20277;-67
2021/07/21 03:51:35;;;;;;;13.47;12.13;;;12.80;99.90;;;;;;5054236;28;20317;-66
2021/07/21 03:54:04;;;;;;;17.17;12.13;;;12.80;99.90;;;;;;5053809;28;20175;-67
2021/07/21 03:56:30;;;;;;;13.70;12.27;;;12.80;99.90;;;;;;5053853;28;20191;-67
2021/07/21 03:58:56;;;;;;;16.63;12.03;;;12.90;99.90;;;;;;5053866;28;20562;-67
2021/07/21 04:01:23;;;;;;;12.87;11.53;;;13.00;99.90;;;;;;5053992;28;20175;-67
2021/07/21 04:03:51;;;;;;;14.77;12.00;;;13.00;99.90;;;;;;5053623;28;20175;-67
2021/07/21 04:06:18;;;;;;;13.83;11.13;;;12.80;99.90;;;;;;5053841;28;20675;-66
2021/07/21 04:08:45;;;;;;;14.00;11.40;;;12.90;99.90;;;;;;5053724;28;20189;-67
2021/07/21 04:11:14;;;;;;;17.90;11.40;;;12.90;99.90;;;;;;5053895;28;20171;-67
2021/07/21 04:13:41;;;;;;;14.60;12.53;;;12.90;99.90;;;;;;5053229;28;20183;-67
2021/07/21 04:16:13;;;;;;;16.47;11.20;;;12.90;99.90;;;;;;5053444;28;20593;-67
2021/07/21 04:18:39;;;;;;;12.60;11.30;;;13.10;99.90;;;;;;5053427;28;20747;-67
2021/07/21 04:21:06;;;;;;;12.97;11.43;;;13.20;99.90;;;;;;5053700;28;20190;-67
2021/07/21 04:23:33;;;;;;;13.60;11.67;;;13.20;99.90;;;;;;5053371;28;20181;-67
2021/07/21 04:25:59;;;;;;;15.60;11.70;;;13.30;99.90;;;;;;5053360;28;20186;-67
2021/07/21 04:28:25;;;;;;;13.03;11.73;;;13.50;99.90;;;;;;5053326;28;20556;-67
2021/07/21 04:30:55;;;;;;;13.37;11.57;;;13.60;99.90;;;;;;5053535;28;20179;-67
2021/07/21 04:33:21;;;;;;;12.63;11.33;;;13.80;99.90;;;;;;5053674;28;20171;-67
2021/07/21 04:35:48;;;;;;;12.17;10.67;;;13.90;99.90;;;;;;5051726;28;20202;-67
2021/07/21 04:38:16;;;;;;;12.03;10.73;;;13.90;99.90;;;;;;5053018;28;20198;-67
2021/07/21 04:40:44;;;;;;;12.00;10.70;;;13.70;99.90;;;;;;5052968;28;20175;-67
2021/07/21 04:43:11;;;;;;;11.20;10.13;;;13.80;99.90;;;;;;5053101;28;20167;-66
2021/07/21 04:45:46;;;;;;;11.97;10.80;;;13.60;99.90;;;;;;5052996;28;20694;-67
2021/07/21 04:48:15;;;;;;;11.73;10.63;;;13.60;99.90;;;;;;5053085;28;20194;-66
2021/07/21 04:50:44;;;;;;;11.10;10.00;;;13.50;99.90;;;;;;5053082;28;20189;-67
2021/07/21 04:53:13;;;;;;;14.37;12.10;;;13.60;99.90;;;;;;5053243;28;20258;-67
2021/07/21 04:55:45;;;;;;;13.03;10.70;;;13.70;99.90;;;;;;5052161;28;20195;-67
2021/07/21 04:58:10;;;;;;;15.50;11.43;;;14.10;99.90;;;;;;5052937;28;20210;-67
2021/07/21 05:00:37;;;;;;;11.53;10.43;;;14.50;99.90;;;;;;5052661;28;20183;-66
2021/07/21 05:03:06;;;;;;;12.27;10.97;;;14.80;99.90;;;;;;5052778;28;20228;-66
2021/07/21 05:05:33;;;;;;;12.83;11.50;;;15.30;99.90;;;;;;5052463;28;20195;-66
2021/07/21 05:07:58;;;;;;;10.87;9.77;;;15.70;99.90;;;;;;5034652;28;20593;-66
2021/07/21 05:10:25;;;;;;;12.13;10.77;;;15.90;99.90;;;;;;5052564;28;20183;-66
2021/07/21 05:12:50;;;;;;;9.90;9.00;;;16.20;99.90;;;;;;5052795;28;20179;-66
2021/07/21 05:15:16;;;;;;;13.83;9.30;;;16.50;99.90;;;;;;5052277;28;20183;-66
2021/07/21 05:17:42;;;;;;;11.67;10.57;;;16.90;99.90;;;;;;5052226;28;20202;-66
2021/07/21 05:20:08;;;;;;;11.47;10.07;;;17.20;99.90;;;;;;5052654;28;20269;-66
2021/07/21 05:22:35;;;;;;;11.20;10.10;;;17.30;99.90;;;;;;5052138;28;20233;-66
2021/07/21 05:25:00;;;;;;;11.00;10.00;;;17.50;99.90;;;;;;5052315;28;20268;-66
2021/07/21 05:27:26;;;;;;;10.20;9.20;;;17.60;99.90;;;;;;5052119;28;20306;-66
2021/07/21 05:29:51;;;;;;;10.07;9.07;;;17.70;99.90;;;;;;5052090;28;20228;-66
2021/07/21 05:32:17;;;;;;;10.00;9.00;;;17.80;99.90;;;;;;5051422;28;20636;-66
2021/07/21 05:34:44;;;;;;;12.83;9.13;;;18.00;99.90;;;;;;5051999;28;20205;-66
2021/07/21 05:37:10;;;;;;;10.43;9.33;;;18.10;99.90;;;;;;5052098;28;20587;-66
2021/07/21 05:39:35;;;;;;;9.07;8.13;;;18.10;99.90;;;;;;5052078;28;20215;-66
2021/07/21 05:42:02;;;;;;;10.57;9.57;;;18.10;99.90;;;;;;5034049;28;20182;-66
2021/07/21 05:44:27;;;;;;;9.47;8.57;;;18.10;99.90;;;;;;5051731;28;20175;-66
2021/07/21 05:46:53;;;;;;;10.30;9.33;;;18.00;99.90;;;;;;5051685;28;20190;-66
2021/07/21 05:49:19;;;;;;;10.07;9.07;;;18.20;99.90;;;;;;5051902;28;20194;-66
2021/07/21 05:51:45;;;;;;;10.07;9.17;;;18.40;99.90;;;;;;5051680;28;20201;-67
2021/07/21 05:54:11;;;;;;;9.13;8.33;;;18.60;99.90;;;;;;5067876;28;20194;-67
2021/07/21 05:56:39;;;;;;;10.15;9.15;;;18.80;99.90;;;;;;5053163;28;20202;-67
2021/07/21 05:59:05;;;;;;;10.85;9.05;;;19.20;99.90;;;;;;5031809;28;20203;-67
2021/07/21 06:01:30;;;;;;;10.02;9.02;;;19.50;99.90;;;;;;5031772;28;20176;-67
2021/07/21 06:03:56;;;;;;;9.23;8.38;;;19.70;99.90;;;;;;5050554;28;20185;-67
2021/07/21 06:06:22;;;;;;;8.90;8.02;;;19.80;99.90;;;;;;5033374;28;20689;-67
2021/07/21 06:08:47;;;;;;;9.82;8.55;;;19.90;99.90;;;;;;5051437;28;20193;-67
2021/07/21 06:11:13;;;;;;;8.77;7.97;;;20.10;99.90;;;;;;5051580;28;20178;-67
2021/07/21 06:13:38;;;;;;;9.50;8.60;;;20.50;99.90;;;;;;5051055;28;20186;-67
2021/07/21 06:16:06;;;;;;;7.80;7.00;;;20.90;99.90;;;;;;5051451;28;20191;-66
2021/07/21 06:18:35;;;;;;;8.30;7.55;;;21.30;99.90;;;;;;5066429;28;20228;-66
2021/07/21 06:21:02;;;;;;;7.50;6.80;;;21.50;99.90;;;;;;5051452;28;20163;-66
2021/07/21 06:23:28;;;;;;;7.60;6.75;;;21.60;99.90;;;;;;5051044;28;20271;-66
2021/07/21 06:25:54;;;;;;;8.50;7.68;;;21.90;99.90;;;;;;5050971;28;20619;-67
2021/07/21 06:28:19;;;;;;;9.60;7.57;;;22.00;99.90;;;;;;5051041;28;20206;-67
2021/07/21 06:30:45;;;;;;;7.43;6.82;;;22.10;99.90;;;;;;5050505;28;20206;-67
2021/07/21 06:33:11;;;;;;;7.65;7.00;;;22.20;99.90;;;;;;5050379;28;20191;-67
2021/07/21 06:35:37;;;;;;;8.63;7.90;;;22.30;99.90;;;;;;5050874;28;20191;-67
2021/07/21 06:38:02;;;;;;;8.05;7.35;;;22.40;99.90;;;;;;5050697;28;20209;-66
2021/07/21 06:40:28;;;;;;;8.93;7.53;;;22.50;99.90;;;;;;5050327;28;20167;-67
2021/07/21 06:42:54;;;;;;;7.90;6.70;;;22.70;99.90;;;;;;5032066;28;20222;-66
2021/07/21 06:45:19;;;;;;;7.25;6.57;;;22.90;99.90;;;;;;5050896;28;20178;-66
2021/07/21 06:47:45;;;;;;;10.35;7.57;;;23.20;99.90;;;;;;5050134;28;20194;-67
2021/07/21 06:50:11;;;;;;;7.80;7.10;;;23.40;99.90;;;;;;5051150;28;20174;-66
2021/07/21 06:52:37;;;;;;;8.27;7.10;;;23.50;99.90;;;;;;5050626;28;20179;-67
2021/07/21 06:55:04;;;;;;;7.75;6.93;;;23.50;99.90;;;;;;5050631;28;20167;-67
2021/07/21 06:57:30;;;;;;;7.72;6.93;;;23.60;99.90;;;;;;5050748;28;20332;-66
2021/07/21 06:59:56;;;;;;;7.18;6.57;;;23.90;99.90;;;;;;5054423;28;20221;-67
2021/07/21 07:02:21;;;;;;;11.85;7.15;;;23.90;99.90;;;;;;5054672;28;20653;-67
2021/07/21 07:04:47;;;;;;;9.48;7.10;;;24.20;99.90;;;;;;5054722;28;20195;-67
2021/07/21 07:07:13;;;;;;;8.10;7.30;;;24.40;99.90;;;;;;5053696;28;20684;-67
2021/07/21 07:09:38;;;;;;;8.02;7.32;;;24.60;99.90;;;;;;5054223;28;20167;-67
2021/07/21 07:12:04;;;;;;;7.70;6.93;;;24.80;99.90;;;;;;5054846;28;20175;-66
2021/07/21 07:14:30;;;;;;;8.68;7.78;;;25.10;99.90;;;;;;5053832;28;20636;-66
2021/07/21 07:16:55;;;;;;;7.70;6.53;;;25.20;99.90;;;;;;5054852;28;20191;-66
2021/07/21 07:19:21;;;;;;;7.65;6.82;;;25.30;99.90;;;;;;5054544;28;20198;-67
2021/07/21 07:21:48;;;;;;;6.88;6.28;;;25.50;99.90;;;;;;5054543;28;20171;-68
2021/07/21 07:24:13;;;;;;;7.15;6.22;;;25.40;99.90;;;;;;5054411;28;20187;-66
2021/07/21 07:26:39;;;;;;;6.63;6.03;;;25.60;99.90;;;;;;5054136;28;20191;-66
2021/07/21 07:29:05;;;;;;;6.40;5.90;;;25.70;99.90;;;;;;5054596;28;20206;-66
2021/07/21 07:31:31;;;;;;;7.32;6.63;;;25.60;99.90;;;;;;5053999;28;20240;-67
2021/07/21 07:33:56;;;;;;;6.32;5.72;;;25.90;99.90;;;;;;5053213;28;20210;-66
2021/07/21 07:36:22;;;;;;;8.07;5.72;;;26.10;99.90;;;;;;5051572;28;20268;-64
2021/07/21 07:38:47;;;;;;;6.25;5.43;;;26.30;99.90;;;;;;5054073;28;20224;-67
2021/07/21 07:41:14;;;;;;;6.47;5.88;;;26.50;99.90;;;;;;5054288;28;20178;-67
2021/07/21 07:43:39;;;;;;;6.47;5.65;;;26.50;99.90;;;;;;5054109;28;20186;-67
2021/07/21 07:46:07;;;;;;;6.03;5.43;;;26.50;99.90;;;;;;5060410;28;20198;-66
2021/07/21 07:48:33;;;;;;;6.28;5.68;;;26.60;99.90;;;;;;5053915;28;20190;-66
2021/07/21 07:50:59;;;;;;;5.78;5.38;;;26.40;99.90;;;;;;5053866;28;20270;-67
2021/07/21 07:53:25;;;;;;;6.00;5.57;;;26.40;99.90;;;;;;5053945;28;20245;-67
2021/07/21 07:55:50;;;;;;;5.75;5.25;;;26.20;99.90;;;;;;5053393;28;20199;-66
2021/07/21 07:58:16;;;;;;;6.55;5.97;;;26.40;99.90;;;;;;5053825;28;20281;-67
2021/07/21 08:00:42;;;;;;;5.43;5.03;;;26.60;99.90;;;;;;5053639;28;20269;-67
2021/07/21 08:03:07;;;;;;;5.65;5.13;;;26.90;99.90;;;;;;5054136;28;20162;-66
2021/07/21 08:05:33;;;;;;;6.03;5.43;;;27.20;99.90;;;;;;5053165;28;20203;-66
2021/07/21 08:08:01;;;;;;;7.00;5.40;;;27.40;99.90;;;;;;5053599;28;20175;-66
2021/07/21 08:10:27;;;;;;;5.70;5.20;;;27.60;99.90;;;;;;5059540;28;20187;-66
2021/07/21 08:12:53;;;;;;;5.38;4.97;;;28.00;99.90;;;;;;5053668;28;20179;-67
2021/07/21 08:15:19;;;;;;;6.68;6.18;;;28.10;99.90;;;;;;5052995;28;20667;-65
2021/07/21 08:17:44;;;;;;;5.30;4.93;;;27.60;99.90;;;;;;5053618;28;20278;-67
2021/07/21 08:20:11;;;;;;;4.72;4.43;;;27.40;99.90;;;;;;5053178;28;20175;-66
2021/07/21 08:22:40;;;;;;;6.15;5.68;;;27.70;99.90;;;;;;5053195;28;20242;-67
2021/07/21 08:25:15;;;;;;;5.28;4.88;;;27.90;99.90;;;;;;5052970;28;20179;-67
2021/07/21 08:27:41;;;;;;;5.70;5.20;;;28.00;99.90;;;;;;5053558;28;20205;-66
2021/07/21 08:30:14;;;;;;;5.93;5.32;;;28.00;99.90;;;;;;5053147;28;20183;-66
2021/07/21 08:32:47;;;;;;;5.60;5.20;;;28.00;99.90;;;;;;5053251;28;20166;-66
2021/07/21 08:35:14;;;;;;;5.20;4.80;;;28.30;99.90;;;;;;5052699;28;20586;-66
2021/07/21 08:37:40;;;;;;;6.55;6.15;;;28.30;99.90;;;;;;5053152;28;20210;-66
2021/07/21 08:40:07;;;;;;;6.20;5.80;;;28.10;99.90;;;;;;5052698;28;20202;-67
2021/07/21 08:42:33;;;;;;;6.32;5.82;;;27.60;99.90;;;;;;5050989;28;20198;-66
2021/07/21 08:44:59;;;;;;;6.43;5.93;;;27.50;99.90;;;;;;5052696;28;20167;-66
2021/07/21 08:47:25;;;;;;;6.57;5.75;;;27.50;99.90;;;;;;5052779;28;20222;-67
2021/07/21 08:49:51;;;;;;;6.75;6.25;;;27.50;99.90;;;;;;5138974;22;20305;-67
2021/07/21 08:52:17;;;;;;;6.88;6.38;;;27.40;99.90;;;;;;5072991;28;20174;-67
2021/07/21 08:54:48;;;;;;;5.57;5.07;;;27.40;99.90;;;;;;5072119;28;20257;-67
2021/07/21 08:57:16;;;;;;;5.95;5.45;;;27.80;99.90;;;;;;5071874;28;20189;-67
2021/07/21 08:59:45;;;;;;;5.25;4.82;;;27.90;99.90;;;;;;5072540;28;20234;-67
2021/07/21 09:02:12;;;;;;;5.32;4.93;;;27.80;99.90;;;;;;5071873;28;20257;-67
2021/07/21 09:04:38;;;;;;;4.93;4.63;;;27.90;99.90;;;;;;5072199;28;20182;-67
2021/07/21 09:07:06;;;;;;;6.00;5.55;;;28.10;99.90;;;;;;5072708;28;20205;-67
2021/07/21 09:09:32;;;;;;;6.20;5.70;;;27.90;99.90;;;;;;5071349;28;20561;-67
2021/07/21 09:11:58;;;;;;;6.05;5.55;;;27.80;99.90;;;;;;5072571;28;20170;-67
2021/07/21 09:14:25;;;;;;;5.38;4.63;;;28.00;99.90;;;;;;5070106;28;20251;-67
2021/07/21 09:17:11;;;;;;;5.25;4.75;;;28.20;99.90;;;;;;5071837;28;20176;-67
2021/07/21 09:19:43;;;;;;;5.20;4.80;;;28.70;99.90;;;;;;5072209;28;20213;-67
2021/07/21 09:22:15;;;;;;;5.60;5.10;;;29.30;99.90;;;;;;5071696;28;20174;-66
2021/07/21 09:24:41;;;;;;;5.40;4.90;;;29.80;99.90;;;;;;5072093;28;20560;-66
2021/07/21 09:27:07;;;;;;;5.63;5.13;;;30.00;99.90;;;;;;5071686;28;20265;-65
2021/07/21 09:29:32;;;;;;;5.03;4.63;;;30.10;99.90;;;;;;5072074;28;20276;-66
2021/07/21 09:31:59;;;;;;;5.70;5.20;;;30.50;99.90;;;;;;5072244;28;20678;-67
2021/07/21 09:34:26;;;;;;;5.32;4.93;;;30.70;99.90;;;;;;5071810;28;20175;-67
2021/07/21 09:37:06;;;;;;;5.03;4.60;;;30.80;99.90;;;;;;5072007;28;20288;-67
2021/07/21 09:39:42;;;;;;;5.85;5.35;;;30.80;99.90;;;;;;5069466;28;20206;-66
2021/07/21 09:42:10;;;;;;;5.13;4.72;;;31.00;99.90;;;;;;5071788;28;20166;-68
2021/07/21 09:44:41;;;;;;;5.70;5.28;;;31.10;99.90;;;;;;5071788;28;20171;-67
2021/07/21 09:47:16;;;;;;;5.65;5.25;;;30.90;99.90;;;;;;5076078;28;20178;-67
2021/07/21 09:49:43;;;;;;;5.25;4.85;;;31.00;99.90;;;;;;5071779;28;20205;-67
2021/07/21 09:52:22;;;;;;;5.90;5.38;;;31.50;99.90;;;;;;5071342;28;20200;-67
2021/07/21 09:55:06;;;;;;;5.57;5.07;;;31.30;99.90;;;;;;5071720;28;20174;-67
2021/07/21 09:57:33;;;;;;;6.72;6.13;;;31.40;99.90;;;;;;5071636;28;20189;-67
2021/07/21 10:00:23;;;;;;;5.60;5.05;;;31.40;99.90;;;;;;5071730;28;20222;-67
2021/07/21 10:02:50;;;;;;;5.60;5.10;;;31.40;99.90;;;;;;5071581;28;20178;-65
2021/07/21 10:05:15;;;;;;;5.60;5.10;;;30.90;99.90;;;;;;5071417;28;20178;-66
2021/07/21 10:07:50;;;;;;;5.93;5.30;;;30.40;99.90;;;;;;5071231;28;20218;-66
2021/07/21 10:10:23;;;;;;;6.22;5.63;;;30.10;99.90;;;;;;5071677;28;20166;-67
2021/07/21 10:13:00;;;;;;;6.20;5.70;;;30.00;99.90;;;;;;5071388;28;20174;-66
2021/07/21 10:15:26;;;;;;;5.93;5.53;;;30.20;99.90;;;;;;5069924;28;20647;-66
2021/07/21 10:18:16;;;;;;;6.03;5.43;;;30.30;99.90;;;;;;5069023;28;20612;-66
2021/07/21 10:20:44;;;;;;;5.53;4.97;;;30.10;99.90;;;;;;5071478;28;20170;-67
2021/07/21 10:23:11;;;;;;;6.28;5.80;;;30.30;99.90;;;;;;5071391;28;20610;-67
2021/07/21 10:25:38;;;;;;;5.88;5.38;;;30.50;99.90;;;;;;5071181;28;20183;-66
2021/07/21 10:28:04;;;;;;;6.03;5.53;;;31.10;99.90;;;;;;5070939;28;20247;-66
2021/07/21 10:30:32;;;;;;;6.22;5.60;;;31.00;99.90;;;;;;5071533;28;20221;-66
2021/07/21 10:32:59;;;;;;;6.47;5.95;;;30.60;99.90;;;;;;5070310;28;20182;-67
2021/07/21 10:35:26;;;;;;;6.72;6.22;;;30.70;99.90;;;;;;5070977;28;20188;-66
2021/07/21 10:37:52;;;;;;;6.40;5.80;;;30.70;99.90;;;;;;5071136;28;20526;-67
2021/07/21 10:40:21;;;;;;;7.10;6.40;;;30.80;99.90;;;;;;5071300;28;20178;-67
2021/07/21 10:42:53;;;;;;;6.40;5.78;;;30.80;99.90;;;;;;5071000;28;20185;-67
2021/07/21 10:45:21;;;;;;;7.85;5.57;;;30.60;99.90;;;;;;5070945;28;20249;-66
2021/07/21 10:47:48;;;;;;;5.93;5.45;;;30.30;99.90;;;;;;5070957;28;20189;-67
2021/07/21 10:51:19;;;;;;;6.43;5.75;;;30.30;99.90;;;;;;5069104;28;20262;-67
2021/07/21 10:53:24;;;;;;;6.63;6.03;;;30.60;99.90;;;;;;5055824;28;20185;-66
2021/07/21 10:59:11;;;;;;;7.30;6.60;;;30.80;99.90;;;;;;5053506;28;20174;-68
2021/07/21 11:01:28;;;;;;;6.82;6.22;;;31.50;99.90;;;;;;5070689;28;20193;-67
2021/07/21 11:04:04;;;;;;;6.35;5.82;;;32.30;99.90;;;;;;5070484;28;20174;-67
2021/07/21 11:06:40;;;;;;;6.15;5.63;;;33.00;99.90;;;;;;5070600;28;20162;-67
2021/07/21 11:09:18;;;;;;;6.40;5.85;;;32.90;99.90;;;;;;5070627;28;20304;-67
2021/07/21 11:11:45;;;;;;;6.03;5.53;;;33.30;99.90;;;;;;5070879;28;20174;-67
2021/07/21 11:14:35;;;;;;;7.45;6.75;;;33.30;99.90;;;;;;5069420;28;20181;-66
2021/07/21 11:17:06;;;;;;;5.85;5.40;;;33.60;99.30;;;;;;5070566;28;20186;-67
2021/07/21 11:19:42;;;;;;;5.75;5.32;;;33.70;99.90;;;;;;5070702;28;20206;-66
2021/07/21 11:22:19;;;;;;;6.03;5.53;;;34.00;97.60;;;;;;5070445;28;20231;-67
2021/07/21 11:25:14;;;;;;;7.00;6.30;;;33.90;98.50;;;;;;5070671;28;20174;-67
2021/07/21 11:27:47;;;;;;;7.30;6.63;;;33.10;96.60;;;;;;5070627;28;20186;-66
2021/07/21 11:30:31;;;;;;;7.05;6.35;;;32.80;97.90;;;;;;5070891;28;20162;-67
2021/07/21 11:32:57;;;;;;;6.60;6.00;;;32.20;97.10;;;;;;5070026;28;20178;-66
2021/07/21 11:35:40;;;;;;;7.10;6.50;;;32.50;99.90;;;;;;5068969;28;20178;-66
2021/07/21 11:38:44;;;;;;;7.88;7.28;;;32.80;98.60;;;;;;5070355;28;20197;-65
2021/07/21 11:41:10;;;;;;;7.03;6.43;;;33.10;98.40;;;;;;5070500;28;20192;-66
2021/07/21 11:43:36;;;;;;;7.05;6.35;;;33.30;98.40;;;;;;5070429;28;20171;-66
2021/07/21 11:46:04;;;;;;;7.20;6.60;;;33.60;98.60;;;;;;5073605;28;20587;-66
2021/07/21 11:48:32;;;;;;;7.72;7.13;;;33.70;97.50;;;;;;5073954;28;20206;-67
2021/07/21 11:50:58;;;;;;;8.32;6.78;;;33.50;98.90;;;;;;5055918;28;20639;-67
2021/07/21 11:53:24;;;;;;;6.97;6.28;;;33.50;98.10;;;;;;5074237;28;20239;-66
2021/07/21 11:55:50;;;;;;;6.68;6.10;;;33.30;98.30;;;;;;5073883;28;20209;-67
2021/07/21 11:58:16;;;;;;;6.88;6.28;;;33.70;98.70;;;;;;5073509;28;20241;-67
2021/07/21 12:00:51;;;;;;;7.10;6.50;;;33.40;97.20;;;;;;5073889;28;20250;-66
2021/07/21 12:03:17;;;;;;;7.72;7.03;;;33.40;97.70;;;;;;5073870;28;20269;-67
2021/07/21 12:05:53;;;;;;;7.68;6.53;;;33.30;97.00;;;;;;5073538;28;20249;-66
2021/07/21 12:08:19;;;;;;;6.47;5.95;;;33.20;98.00;;;;;;5073369;28;20202;-66
2021/07/21 12:10:45;;;;;;;7.40;6.53;;;33.50;97.90;;;;;;5073782;28;20219;-67
2021/07/21 12:13:12;;;;;;;7.32;6.72;;;33.90;95.50;;;;;;5073560;28;20198;-65
2021/07/21 12:15:39;;;;;;;8.25;7.45;;;34.10;97.70;;;;;;5073550;28;20172;-67
2021/07/21 12:18:12;;;;;;;7.10;6.47;;;34.30;98.10;;;;;;5073423;28;20202;-67
2021/07/21 12:20:38;;;;;;;6.88;6.28;;;34.70;98.40;;;;;;5073637;28;20161;-66
2021/07/21 12:23:04;;;;;;;8.27;7.57;;;34.50;95.30;;;;;;5073333;28;20568;-66
2021/07/21 12:25:31;;;;;;;8.57;6.90;;;33.30;96.20;;;;;;5073157;28;20174;-67
2021/07/21 12:27:58;;;;;;;7.70;7.00;;;32.60;96.10;;;;;;5073176;28;20570;-66
2021/07/21 12:30:25;;;;;;;7.72;6.93;;;31.80;97.00;;;;;;5072318;28;20166;-66
2021/07/21 12:32:53;;;;;;;7.55;6.85;;;31.00;98.50;;;;;;5073286;28;20228;-66
2021/07/21 12:35:24;;;;;;;9.85;8.95;;;30.70;97.90;;;;;;5071500;28;20695;-65
2021/07/21 12:37:52;;;;;;;8.80;7.90;;;30.30;98.80;;;;;;5072946;28;20204;-65
2021/07/21 12:40:20;;;;;;;8.15;7.20;;;30.40;98.70;;;;;;5073383;28;20171;-66
2021/07/21 12:42:51;;;;;;;8.13;7.30;;;31.10;99.90;;;;;;5073076;28;20757;-66
2021/07/21 12:45:18;;;;;;;8.23;7.53;;;31.90;97.80;;;;;;5072939;28;20227;-67
2021/07/21 12:47:55;;;;;;;7.75;7.15;;;32.60;97.00;;;;;;5073008;28;20177;-66
2021/07/21 12:50:27;;;;;;;7.65;6.85;;;33.20;96.20;;;;;;5073007;28;20181;-67
2021/07/21 12:53:06;;;;;;;7.03;6.43;;;33.30;97.40;;;;;;5072632;28;20182;-66